Welcome to Northern Hawkes Bay. New Zealand.
PWS Header
      nz Flag



Hit Counter


W3C Valid W3C Valid logo


    Wairoa

Select any of the Stations below to visit their websites.










Historic Data from Weather Underground
Select the location of interest below. Wairoa is the default. Please have patience, this Data is slow to load in.
Northern Hawkes Bay Historical Data
Daily Summary for June 13, 2017 Units:  Metric    English   Both
« Previous Day
Next Day »
Daily Weekly Monthly Yearly Custom
  High: Low: Average:
Temperature: 19.7 °C 8.9 °C 14.4 °C
Dew Point: 10.2 °C 5.9 °C 8.4 °C
Humidity: 87% 54% 68%
Wind Speed: 21.9km/h 0.0km/h 8.6km/h
Wind Gust: 40.4km/h - -
Wind- - WSW
Pressure: 1017.2 hPa 1005.6 hPa -
Precipitation: 0.0 mm    
Historical Graphs
 
 
Tabular Data for June 13, 2017
Time Temperature Dew Point Pressure Wind Wind Speed Wind Gust Humidity Rainfall Rate (Hourly) solar
00:01 10.4 °C 6.9 °C 1017.2 hPa NNW 2.6 km/h 6.1 km/h 79% 0.0 mm 0 W/m2
00:06 10.4 °C 7.3 °C 1016.8 hPa NNW 1.1 km/h 5.0 km/h 81% 0.0 mm 0 W/m2
00:11 10.3 °C 7.2 °C 1016.8 hPa NW 3.5 km/h 6.1 km/h 81% 0.0 mm 0 W/m2
00:16 10.3 °C 7.6 °C 1016.8 hPa SSE 2.6 km/h 6.1 km/h 83% 0.0 mm 0 W/m2
00:21 10.5 °C 7.6 °C 1016.8 hPa SSE 1.1 km/h 5.0 km/h 82% 0.0 mm 0 W/m2
00:26 10.4 °C 7.7 °C 1016.5 hPa SE 2.6 km/h 6.1 km/h 83% 0.0 mm 0 W/m2
00:31 10.6 °C 7.8 °C 1016.5 hPa SSE 1.1 km/h 6.1 km/h 83% 0.0 mm 0 W/m2
00:36 10.2 °C 7.3 °C 1016.5 hPa SSW 2.6 km/h 7.2 km/h 82% 0.0 mm 0 W/m2
00:56 9.0 °C 6.6 °C 1016.1 hPa SSE 1.1 km/h 6.1 km/h 85% 0.0 mm 0 W/m2
01:01 8.9 °C 6.8 °C 1016.1 hPa SE 6.1 km/h 7.2 km/h 87% 0.0 mm 0 W/m2
01:06 9.5 °C 7.4 °C 1016.1 hPa ESE 1.1 km/h 7.2 km/h 87% 0.0 mm 0 W/m2
01:11 9.7 °C 7.7 °C 1016.1 hPa East 2.6 km/h 7.2 km/h 87% 0.0 mm 0 W/m2
01:16 9.9 °C 7.8 °C 1016.1 hPa SSW 1.1 km/h 5.0 km/h 87% 0.0 mm 0 W/m2
01:21 10.0 °C 7.6 °C 1016.1 hPa West 1.1 km/h 5.0 km/h 85% 0.0 mm 0 W/m2
01:26 9.8 °C 7.6 °C 1016.1 hPa Calm   3.5 km/h 86% 0.0 mm 0 W/m2
01:31 9.9 °C 7.7 °C 1016.1 hPa NNW 5.0 km/h 8.7 km/h 86% 0.0 mm 0 W/m2
01:36 10.1 °C 7.7 °C 1016.1 hPa North 6.1 km/h 9.7 km/h 85% 0.0 mm 0 W/m2
01:41 10.7 °C 8.3 °C 1016.1 hPa North 7.2 km/h 13.4 km/h 85% 0.0 mm 0 W/m2
01:46 11.1 °C 8.3 °C 1016.1 hPa North 6.1 km/h 13.4 km/h 83% 0.0 mm 0 W/m2
01:51 11.3 °C 8.3 °C 1015.8 hPa North 3.5 km/h 11.1 km/h 82% 0.0 mm 0 W/m2
01:56 11.4 °C 8.1 °C 1015.8 hPa NNW 6.1 km/h 11.1 km/h 80% 0.0 mm 0 W/m2
02:01 11.6 °C 8.1 °C 1015.8 hPa NNW 5.0 km/h 11.1 km/h 79% 0.0 mm 0 W/m2
02:06 11.5 °C 7.8 °C 1015.8 hPa North 7.2 km/h 14.8 km/h 78% 0.0 mm 0 W/m2
02:11 11.6 °C 7.9 °C 1015.8 hPa North 9.7 km/h 14.8 km/h 78% 0.0 mm 0 W/m2
02:16 11.7 °C 7.8 °C 1015.8 hPa North 7.2 km/h 19.5 km/h 77% 0.0 mm 0 W/m2
02:21 11.7 °C 7.8 °C 1015.8 hPa North 3.5 km/h 19.5 km/h 77% 0.0 mm 0 W/m2
02:26 11.4 °C 7.5 °C 1016.1 hPa WNW 5.0 km/h 11.1 km/h 77% 0.0 mm 0 W/m2
02:31 11.1 °C 7.6 °C 1016.1 hPa South 2.6 km/h 11.1 km/h 79% 0.0 mm 0 W/m2
02:36 10.9 °C 7.6 °C 1015.8 hPa South 2.6 km/h 11.1 km/h 80% 0.0 mm 0 W/m2
02:41 10.8 °C 7.5 °C 1015.8 hPa North 2.6 km/h 6.1 km/h 80% 0.0 mm 0 W/m2
02:46 10.6 °C 7.5 °C 1015.8 hPa North 1.1 km/h 6.1 km/h 81% 0.0 mm 0 W/m2
02:51 10.4 °C 7.4 °C 1015.8 hPa North 1.1 km/h 6.1 km/h 82% 0.0 mm 0 W/m2
02:56 10.1 °C 7.3 °C 1015.8 hPa NNW 1.1 km/h 2.6 km/h 83% 0.0 mm 0 W/m2
03:01 9.9 °C 7.3 °C 1015.8 hPa NNW 2.6 km/h 3.5 km/h 84% 0.0 mm 0 W/m2
03:06 9.9 °C 7.5 °C 1015.5 hPa NNW 7.2 km/h 12.2 km/h 85% 0.0 mm 0 W/m2
03:11 10.5 °C 7.7 °C 1015.5 hPa North 5.0 km/h 12.2 km/h 83% 0.0 mm 0 W/m2
03:16 10.9 °C 7.8 °C 1015.1 hPa North 5.0 km/h 14.8 km/h 81% 0.0 mm 0 W/m2
03:21 11.6 °C 7.7 °C 1015.1 hPa North 6.1 km/h 19.5 km/h 77% 0.0 mm 0 W/m2
03:26 11.8 °C 7.3 °C 1015.5 hPa North 6.1 km/h 19.5 km/h 74% 0.0 mm 0 W/m2
03:31 11.7 °C 7.2 °C 1015.5 hPa North 5.0 km/h 11.1 km/h 74% 0.0 mm 0 W/m2
03:36 12.2 °C 7.3 °C 1015.5 hPa North 7.2 km/h 13.4 km/h 72% 0.0 mm 0 W/m2
03:41 12.2 °C 7.1 °C 1015.5 hPa North 5.0 km/h 13.4 km/h 71% 0.0 mm 0 W/m2
03:46 12.2 °C 7.1 °C 1015.1 hPa NNW 5.0 km/h 11.1 km/h 71% 0.0 mm 0 W/m2
03:51 12.1 °C 7.0 °C 1015.1 hPa North 7.2 km/h 12.2 km/h 71% 0.0 mm 0 W/m2
03:56 12.1 °C 7.2 °C 1015.1 hPa North 5.0 km/h 12.2 km/h 72% 0.0 mm 0 W/m2
04:01 11.8 °C 7.1 °C 1015.1 hPa NW 5.0 km/h 9.7 km/h 73% 0.0 mm 0 W/m2
04:06 11.4 °C 6.9 °C 1015.5 hPa NW 6.1 km/h 11.1 km/h 74% 0.0 mm 0 W/m2
04:11 11.3 °C 6.8 °C 1015.1 hPa NW 7.2 km/h 11.1 km/h 74% 0.0 mm 0 W/m2
04:16 11.4 °C 7.1 °C 1014.8 hPa NNW 8.7 km/h 15.8 km/h 75% 0.0 mm 0 W/m2
04:21 11.8 °C 7.3 °C 1014.8 hPa North 9.7 km/h 15.8 km/h 74% 0.0 mm 0 W/m2
04:26 12.2 °C 7.3 °C 1014.8 hPa NNW 6.1 km/h 17.2 km/h 72% 0.0 mm 0 W/m2
04:31 12.1 °C 7.0 °C 1014.8 hPa NW 8.7 km/h 17.2 km/h 71% 0.0 mm 0 W/m2
04:36 12.2 °C 7.1 °C 1014.8 hPa NNW 5.0 km/h 14.8 km/h 71% 0.0 mm 0 W/m2
04:41 12.2 °C 7.1 °C 1014.4 hPa North 2.6 km/h 12.2 km/h 71% 0.0 mm 0 W/m2
04:46 12.2 °C 7.1 °C 1014.8 hPa North 1.1 km/h 11.1 km/h 71% 0.0 mm 0 W/m2
04:51 12.0 °C 6.9 °C 1014.4 hPa North 2.6 km/h 11.1 km/h 71% 0.0 mm 0 W/m2
04:56 11.8 °C 6.9 °C 1014.8 hPa North 5.0 km/h 8.7 km/h 72% 0.0 mm 0 W/m2
05:01 11.6 °C 6.7 °C 1014.4 hPa North 6.1 km/h 11.1 km/h 72% 0.0 mm 0 W/m2
05:06 11.6 °C 6.7 °C 1014.4 hPa North 9.7 km/h 13.4 km/h 72% 0.0 mm 0 W/m2
05:11 11.8 °C 6.9 °C 1014.4 hPa NNW 11.1 km/h 15.8 km/h 72% 0.0 mm 0 W/m2
05:16 12.2 °C 6.4 °C 1014.4 hPa NNW 5.0 km/h 15.8 km/h 68% 0.0 mm 0 W/m2
05:21 12.2 °C 6.4 °C 1014.4 hPa NNW 7.2 km/h 13.4 km/h 68% 0.0 mm 0 W/m2
05:26 12.2 °C 6.3 °C 1014.8 hPa NNW 7.2 km/h 11.1 km/h 67% 0.0 mm 0 W/m2
05:31 12.3 °C 6.3 °C 1014.4 hPa North 6.1 km/h 13.4 km/h 67% 0.0 mm 0 W/m2
05:37 12.1 °C 6.2 °C 1014.8 hPa North 5.0 km/h 13.4 km/h 67% 0.0 mm 0 W/m2
05:42 12.1 °C 6.2 °C 1014.8 hPa NNE 6.1 km/h 13.4 km/h 67% 0.0 mm 0 W/m2
05:47 12.0 °C 6.1 °C 1014.8 hPa NNE 5.0 km/h 13.4 km/h 67% 0.0 mm 0 W/m2
05:52 11.8 °C 6.3 °C 1014.8 hPa NNE 2.6 km/h 13.4 km/h 69% 0.0 mm 0 W/m2
05:57 11.6 °C 6.3 °C 1014.8 hPa North 2.6 km/h 9.7 km/h 70% 0.0 mm 0 W/m2
06:02 11.2 °C 6.2 °C 1014.8 hPa North 1.1 km/h 9.7 km/h 71% 0.0 mm 0 W/m2
06:07 10.9 °C 6.3 °C 1014.8 hPa NNW 1.1 km/h 3.5 km/h 73% 0.0 mm 0 W/m2
06:12 10.6 °C 6.2 °C 1015.1 hPa SE 1.1 km/h 2.6 km/h 74% 0.0 mm 0 W/m2
06:17 10.4 °C 5.9 °C 1015.1 hPa East 1.1 km/h 2.6 km/h 74% 0.0 mm 0 W/m2
06:22 10.2 °C 5.9 °C 1015.1 hPa NNE 3.5 km/h 5.0 km/h 75% 0.0 mm 0 W/m2
06:27 10.3 °C 6.3 °C 1015.1 hPa NE 2.6 km/h 6.1 km/h 76% 0.0 mm 0 W/m2
06:32 10.4 °C 6.3 °C 1014.8 hPa NE 3.5 km/h 6.1 km/h 76% 0.0 mm 0 W/m2
06:37 10.7 °C 6.7 °C 1015.1 hPa NE 2.6 km/h 6.1 km/h 76% 0.0 mm 0 W/m2
06:42 10.8 °C 6.7 °C 1014.8 hPa NE 3.5 km/h 7.2 km/h 76% 0.0 mm 0 W/m2
06:47 10.9 °C 6.8 °C 1014.8 hPa NNE 6.1 km/h 8.7 km/h 76% 0.0 mm 0 W/m2
06:52 10.9 °C 6.7 °C 1014.4 hPa North 6.1 km/h 13.4 km/h 75% 0.0 mm 0 W/m2
06:57 10.9 °C 6.8 °C 1014.4 hPa North 2.6 km/h 13.4 km/h 76% 0.0 mm 0 W/m2
07:02 10.9 °C 6.8 °C 1014.4 hPa NE 1.1 km/h 11.1 km/h 76% 0.0 mm 0 W/m2
07:07 10.9 °C 6.8 °C 1014.8 hPa NE 3.5 km/h 7.2 km/h 76% 0.0 mm 0 W/m2
07:12 11.3 °C 7.1 °C 1014.8 hPa NE 3.5 km/h 8.7 km/h 75% 0.0 mm 0 W/m2
07:17 11.1 °C 6.7 °C 1014.4 hPa NNE 2.6 km/h 8.7 km/h 74% 0.0 mm 0 W/m2
07:22 11.1 °C 6.8 °C 1014.4 hPa NNE 2.6 km/h 9.7 km/h 75% 0.0 mm 0 W/m2
07:27 11.1 °C 6.8 °C 1014.4 hPa NE 2.6 km/h 9.7 km/h 75% 0.0 mm 0 W/m2
07:32 11.2 °C 6.9 °C 1014.1 hPa NE 5.0 km/h 11.1 km/h 75% 0.0 mm 2 W/m2
07:37 11.3 °C 7.2 °C 1013.8 hPa NE 6.1 km/h 12.2 km/h 76% 0.0 mm 4 W/m2
07:42 11.4 °C 7.1 °C 1013.8 hPa ENE 3.5 km/h 12.2 km/h 75% 0.0 mm 30 W/m2
07:47 11.8 °C 7.5 °C 1014.4 hPa NE 1.1 km/h 8.7 km/h 75% 0.0 mm 39 W/m2
07:52 12.3 °C 7.8 °C 1014.1 hPa NE 1.1 km/h 8.7 km/h 74% 0.0 mm 48 W/m2
07:58 12.2 °C 7.3 °C 1014.8 hPa West 3.5 km/h 5.0 km/h 72% 0.0 mm 62 W/m2
08:03 12.0 °C 7.3 °C 1014.8 hPa SSW 3.5 km/h 6.1 km/h 73% 0.0 mm 72 W/m2
08:08 12.0 °C 7.3 °C 1014.8 hPa SSE 1.1 km/h 8.7 km/h 73% 0.0 mm 84 W/m2
08:13 12.5 °C 8.0 °C 1014.4 hPa SE 5.0 km/h 8.7 km/h 74% 0.0 mm 93 W/m2
08:18 12.7 °C 7.8 °C 1014.4 hPa East 6.1 km/h 8.7 km/h 72% 0.0 mm 103 W/m2
08:23 13.2 °C 7.8 °C 1014.1 hPa NE 6.1 km/h 9.7 km/h 70% 0.0 mm 113 W/m2
08:40 14.2 °C 7.9 °C 1014.1 hPa NE 7.2 km/h 12.2 km/h 66% 0.0 mm 142 W/m2
08:45 14.7 °C 8.2 °C 1014.1 hPa NNE 3.5 km/h 9.7 km/h 65% 0.0 mm 152 W/m2
08:50 14.8 °C 8.1 °C 1013.8 hPa North 8.7 km/h 11.1 km/h 64% 0.0 mm 161 W/m2
08:55 15.0 °C 7.8 °C 1013.8 hPa North 11.1 km/h 17.2 km/h 62% 0.0 mm 168 W/m2
09:00 15.2 °C 7.5 °C 1013.8 hPa North 9.7 km/h 17.2 km/h 60% 0.0 mm 176 W/m2
09:05 15.2 °C 7.7 °C 1013.4 hPa North 7.2 km/h 17.2 km/h 61% 0.0 mm 184 W/m2
09:10 15.3 °C 7.8 °C 1013.4 hPa North 8.7 km/h 18.3 km/h 61% 0.0 mm 192 W/m2
09:15 15.5 °C 8.0 °C 1013.8 hPa NNE 6.1 km/h 18.3 km/h 61% 0.0 mm 200 W/m2
09:20 15.7 °C 8.2 °C 1013.8 hPa North 8.7 km/h 19.5 km/h 61% 0.0 mm 206 W/m2
09:25 15.8 °C 8.3 °C 1013.8 hPa NNE 7.2 km/h 19.5 km/h 61% 0.0 mm 215 W/m2
09:31 15.9 °C 8.4 °C 1013.4 hPa NNE 12.2 km/h 18.3 km/h 61% 0.0 mm 220 W/m2
09:36 15.9 °C 8.4 °C 1013.4 hPa North 7.2 km/h 18.3 km/h 61% 0.0 mm 224 W/m2
09:41 16.1 °C 8.3 °C 1013.4 hPa North 11.1 km/h 17.2 km/h 60% 0.0 mm 187 W/m2
09:46 16.1 °C 8.3 °C 1013.4 hPa NNW 13.4 km/h 20.9 km/h 60% 0.0 mm 112 W/m2
09:51 16.1 °C 8.1 °C 1013.4 hPa NNW 9.7 km/h 25.6 km/h 59% 0.0 mm 100 W/m2
09:56 16.2 °C 8.2 °C 1013.4 hPa NNW 8.7 km/h 25.6 km/h 59% 0.0 mm 76 W/m2
10:01 16.6 °C 8.6 °C 1013.8 hPa NNW 6.1 km/h 21.9 km/h 59% 0.0 mm 80 W/m2
10:03 16.7 °C 8.9 °C 1013.4 hPa North 9.7 km/h 14.8 km/h 60% 0.0 mm 81 W/m2
10:08 16.6 °C 8.3 °C 1013.4 hPa NNW 9.7 km/h 24.5 km/h 58% 0.0 mm 74 W/m2
10:13 16.5 °C 7.9 °C 1013.8 hPa NW 14.8 km/h 24.5 km/h 57% 0.0 mm 67 W/m2
10:18 16.5 °C 8.2 °C 1013.4 hPa NW 15.8 km/h 24.5 km/h 58% 0.0 mm 66 W/m2
10:23 16.7 °C 8.4 °C 1013.8 hPa NNW 8.7 km/h 21.9 km/h 58% 0.0 mm 65 W/m2
10:28 16.7 °C 8.4 °C 1013.8 hPa NNW 19.5 km/h 25.6 km/h 58% 0.0 mm 64 W/m2
10:33 16.6 °C 8.6 °C 1013.8 hPa NNW 14.8 km/h 27.0 km/h 59% 0.0 mm 60 W/m2
10:38 16.7 °C 8.7 °C 1013.8 hPa NNW 15.8 km/h 27.0 km/h 59% 0.0 mm 63 W/m2
10:43 16.6 °C 8.6 °C 1013.4 hPa NW 17.2 km/h 30.6 km/h 59% 0.0 mm 59 W/m2
10:48 16.6 °C 8.6 °C 1013.8 hPa NW 18.3 km/h 40.4 km/h 59% 0.0 mm 59 W/m2
10:53 16.6 °C 9.1 °C 1013.4 hPa NNW 18.3 km/h 40.4 km/h 61% 0.0 mm 60 W/m2
10:58 16.7 °C 9.2 °C 1013.4 hPa NNW 20.9 km/h 27.0 km/h 61% 0.0 mm 56 W/m2
11:03 16.6 °C 9.1 °C 1013.4 hPa NNW 20.9 km/h 28.0 km/h 61% 0.0 mm 56 W/m2
11:13 16.5 °C 8.9 °C 1013.4 hPa NNW 15.8 km/h 37.8 km/h 61% 0.0 mm 57 W/m2
11:18 16.7 °C 9.4 °C 1013.4 hPa NNW 18.3 km/h 35.6 km/h 62% 0.0 mm 56 W/m2
11:23 16.8 °C 9.0 °C 1013.4 hPa NNW 18.3 km/h 34.3 km/h 60% 0.0 mm 58 W/m2
11:28 17.0 °C 8.9 °C 1013.4 hPa NNW 14.8 km/h 35.6 km/h 59% 0.0 mm 59 W/m2
11:33 17.0 °C 8.7 °C 1013.4 hPa NW 20.9 km/h 36.7 km/h 58% 0.0 mm 61 W/m2
11:38 17.1 °C 8.8 °C 1013.1 hPa NW 14.8 km/h 36.7 km/h 58% 0.0 mm 82 W/m2
11:43 17.3 °C 8.9 °C 1013.1 hPa NW 14.8 km/h 33.1 km/h 58% 0.0 mm 124 W/m2
11:48 17.8 °C 9.2 °C 1012.8 hPa NNW 15.8 km/h 27.0 km/h 57% 0.0 mm 130 W/m2
11:53 17.8 °C 9.2 °C 1012.8 hPa North 19.5 km/h 23.3 km/h 57% 0.0 mm 160 W/m2
11:58 17.3 °C 8.7 °C 1012.4 hPa North 12.2 km/h 35.6 km/h 57% 0.0 mm 176 W/m2
12:03 18.0 °C 9.6 °C 1012.1 hPa North 14.8 km/h 35.6 km/h 58% 0.0 mm 179 W/m2
12:08 17.9 °C 9.0 °C 1012.1 hPa NNW 15.8 km/h 30.6 km/h 56% 0.0 mm 183 W/m2
12:13 17.9 °C 9.6 °C 1012.1 hPa NNW 11.1 km/h 28.0 km/h 58% 0.0 mm 184 W/m2
12:18 18.0 °C 8.8 °C 1012.1 hPa NNW 14.8 km/h 28.0 km/h 55% 0.0 mm 183 W/m2
12:23 18.1 °C 8.9 °C 1012.1 hPa NNW 15.8 km/h 28.0 km/h 55% 0.0 mm 156 W/m2
12:28 18.1 °C 8.9 °C 1011.7 hPa NNW 11.1 km/h 28.0 km/h 55% 0.0 mm 141 W/m2
12:34 18.0 °C 8.8 °C 1011.7 hPa NNW 13.4 km/h 24.5 km/h 55% 0.0 mm 176 W/m2
12:40 17.8 °C 8.4 °C 1011.4 hPa North 13.4 km/h 25.6 km/h 54% 0.0 mm 153 W/m2
12:45 17.6 °C 8.4 °C 1011.4 hPa NNW 12.2 km/h 30.6 km/h 55% 0.0 mm 153 W/m2
12:50 17.3 °C 8.4 °C 1011.1 hPa NW 8.7 km/h 30.6 km/h 56% 0.0 mm 141 W/m2
12:55 17.1 °C 8.8 °C 1011.1 hPa NNW 12.2 km/h 29.4 km/h 58% 0.0 mm 149 W/m2
13:00 17.1 °C 8.8 °C 1011.1 hPa NNW 19.5 km/h 24.5 km/h 58% 0.0 mm 147 W/m2
13:05 16.8 °C 8.7 °C 1011.1 hPa NW 7.2 km/h 24.5 km/h 59% 0.0 mm 145 W/m2
13:10 17.0 °C 8.7 °C 1010.7 hPa NW 8.7 km/h 24.5 km/h 58% 0.0 mm 143 W/m2
13:15 17.0 °C 8.7 °C 1010.7 hPa NW 11.1 km/h 23.3 km/h 58% 0.0 mm 127 W/m2
13:20 16.8 °C 8.5 °C 1010.7 hPa NW 12.2 km/h 24.5 km/h 58% 0.0 mm 112 W/m2
13:25 16.8 °C 8.7 °C 1010.7 hPa NNW 13.4 km/h 24.5 km/h 59% 0.0 mm 99 W/m2
13:30 16.6 °C 8.6 °C 1010.4 hPa NW 12.2 km/h 27.0 km/h 59% 0.0 mm 110 W/m2
13:35 16.6 °C 8.8 °C 1010.4 hPa NW 17.2 km/h 27.0 km/h 60% 0.0 mm 123 W/m2
13:40 16.7 °C 8.9 °C 1010.4 hPa NNW 13.4 km/h 23.3 km/h 60% 0.0 mm 122 W/m2
13:45 16.6 °C 9.3 °C 1010.0 hPa NNW 7.2 km/h 21.9 km/h 62% 0.0 mm 120 W/m2
13:50 16.7 °C 9.4 °C 1010.0 hPa NNW 13.4 km/h 21.9 km/h 62% 0.0 mm 107 W/m2
13:55 16.7 °C 9.2 °C 1010.0 hPa NNW 9.7 km/h 25.6 km/h 61% 0.0 mm 131 W/m2
14:00 16.8 °C 9.0 °C 1010.0 hPa NNW 11.1 km/h 25.6 km/h 60% 0.0 mm 108 W/m2
14:05 16.8 °C 9.0 °C 1010.0 hPa NW 18.3 km/h 25.6 km/h 60% 0.0 mm 97 W/m2
14:10 17.0 °C 8.7 °C 1010.0 hPa NW 12.2 km/h 21.9 km/h 58% 0.0 mm 93 W/m2
14:15 17.0 °C 8.9 °C 1010.0 hPa NNW 9.7 km/h 23.3 km/h 59% 0.0 mm 124 W/m2
14:20 17.4 °C 9.3 °C 1010.0 hPa NW 8.7 km/h 23.3 km/h 59% 0.0 mm 85 W/m2
14:25 17.8 °C 9.7 °C 1010.0 hPa NW 9.7 km/h 23.3 km/h 59% 0.0 mm 264 W/m2
14:30 18.7 °C 10.0 °C 1010.0 hPa NW 11.1 km/h 24.5 km/h 57% 0.0 mm 284 W/m2
14:35 18.7 °C 9.5 °C 1009.7 hPa NNW 12.2 km/h 27.0 km/h 55% 0.0 mm 110 W/m2
14:40 19.1 °C 9.8 °C 1010.0 hPa NNW 13.4 km/h 27.0 km/h 55% 0.0 mm 309 W/m2
14:45 19.2 °C 9.7 °C 1009.7 hPa North 8.7 km/h 23.3 km/h 54% 0.0 mm 300 W/m2
14:50 19.7 °C 10.2 °C 1010.0 hPa NNW 14.8 km/h 23.3 km/h 54% 0.0 mm 307 W/m2
14:55 19.5 °C 9.9 °C 1010.0 hPa NW 18.3 km/h 24.5 km/h 54% 0.0 mm 281 W/m2
15:00 19.0 °C 9.5 °C 1010.0 hPa NW 18.3 km/h 24.5 km/h 54% 0.0 mm 257 W/m2
15:05 18.8 °C 9.8 °C 1010.0 hPa NNW 18.3 km/h 30.6 km/h 56% 0.0 mm 117 W/m2
15:10 18.1 °C 9.4 °C 1009.7 hPa NW 9.7 km/h 30.6 km/h 57% 0.0 mm 107 W/m2
15:15 17.7 °C 9.3 °C 1009.7 hPa NW 19.5 km/h 27.0 km/h 58% 0.0 mm 67 W/m2
15:20 17.4 °C 9.3 °C 1009.7 hPa NW 15.8 km/h 27.0 km/h 59% 0.0 mm 67 W/m2
15:25 17.2 °C 9.6 °C 1009.4 hPa NW 8.7 km/h 27.0 km/h 61% 0.0 mm 90 W/m2
15:30 17.3 °C 9.2 °C 1009.4 hPa NW 17.2 km/h 31.7 km/h 59% 0.0 mm 91 W/m2
15:35 17.8 °C 9.7 °C 1009.4 hPa NW 8.7 km/h 31.7 km/h 59% 0.0 mm 126 W/m2
15:40 18.2 °C 9.6 °C 1009.4 hPa NW 7.2 km/h 24.5 km/h 57% 0.0 mm 117 W/m2
15:45 18.5 °C 9.6 °C 1009.4 hPa NW 14.8 km/h 21.9 km/h 56% 0.0 mm 111 W/m2
15:50 18.7 °C 9.8 °C 1009.4 hPa NW 9.7 km/h 21.9 km/h 56% 0.0 mm 108 W/m2
15:55 18.8 °C 9.6 °C 1009.4 hPa NW 11.1 km/h 24.5 km/h 55% 0.0 mm 114 W/m2
16:00 18.1 °C 9.2 °C 1009.4 hPa NW 12.2 km/h 24.5 km/h 56% 0.0 mm 72 W/m2
16:05 18.0 °C 9.1 °C 1009.4 hPa NW 20.9 km/h 35.6 km/h 56% 0.0 mm 78 W/m2
16:10 18.0 °C 9.1 °C 1009.0 hPa NW 13.4 km/h 35.6 km/h 56% 0.0 mm 35 W/m2
16:15 17.3 °C 8.9 °C 1009.0 hPa NW 14.8 km/h 30.6 km/h 58% 0.0 mm 24 W/m2
16:20 16.8 °C 9.5 °C 1009.0 hPa NW 15.8 km/h 30.6 km/h 62% 0.0 mm 20 W/m2
16:25 16.7 °C 9.4 °C 1008.7 hPa NNW 11.1 km/h 24.5 km/h 62% 0.0 mm 16 W/m2
16:30 16.4 °C 9.3 °C 1008.0 hPa NNW 18.3 km/h 30.6 km/h 63% 0.0 mm 11 W/m2
16:35 16.2 °C 9.2 °C 1008.0 hPa NNW 13.4 km/h 30.6 km/h 63% 0.0 mm 9 W/m2
16:40 16.1 °C 9.3 °C 1007.7 hPa NNW 12.2 km/h 28.0 km/h 64% 0.0 mm 5 W/m2
16:45 15.9 °C 9.6 °C 1007.7 hPa NNW 17.2 km/h 30.6 km/h 66% 0.0 mm 3 W/m2
16:50 15.8 °C 9.4 °C 1007.7 hPa NNW 9.7 km/h 30.6 km/h 66% 0.0 mm 1 W/m2
16:55 15.8 °C 9.4 °C 1007.7 hPa NNW 15.8 km/h 27.0 km/h 66% 0.0 mm 0 W/m2
17:00 15.7 °C 9.4 °C 1007.3 hPa NNW 12.2 km/h 27.0 km/h 66% 0.0 mm 0 W/m2
17:05 15.7 °C 9.4 °C 1007.0 hPa NNW 12.2 km/h 28.0 km/h 66% 0.0 mm 0 W/m2
17:10 15.6 °C 9.5 °C 1007.3 hPa North 9.7 km/h 28.0 km/h 67% 0.0 mm 0 W/m2
17:15 15.6 °C 9.5 °C 1008.0 hPa NNW 5.0 km/h 25.6 km/h 67% 0.0 mm 0 W/m2
17:20 15.6 °C 9.5 °C 1007.7 hPa North 12.2 km/h 21.9 km/h 67% 0.0 mm 0 W/m2
17:25 15.6 °C 9.5 °C 1007.3 hPa NNW 11.1 km/h 21.9 km/h 67% 0.0 mm 0 W/m2
17:30 15.4 °C 9.3 °C 1007.7 hPa NNW 8.7 km/h 20.9 km/h 67% 0.0 mm 0 W/m2
17:35 15.4 °C 9.3 °C 1008.4 hPa NNW 2.6 km/h 19.5 km/h 67% 0.0 mm 0 W/m2
17:40 15.2 °C 9.3 °C 1008.7 hPa East 2.6 km/h 11.1 km/h 68% 0.0 mm 0 W/m2
17:45 14.9 °C 9.7 °C 1008.4 hPa SE 5.0 km/h 9.7 km/h 71% 0.0 mm 0 W/m2
17:50 14.9 °C 9.7 °C 1008.4 hPa ESE 3.5 km/h 9.7 km/h 71% 0.0 mm 0 W/m2
17:55 14.8 °C 9.8 °C 1008.0 hPa NE 5.0 km/h 8.7 km/h 72% 0.0 mm 0 W/m2
18:00 14.8 °C 9.8 °C 1007.7 hPa North 3.5 km/h 8.7 km/h 72% 0.0 mm 0 W/m2
18:05 14.9 °C 9.9 °C 1007.7 hPa North 5.0 km/h 13.4 km/h 72% 0.0 mm 0 W/m2
18:10 15.2 °C 9.8 °C 1007.3 hPa NNW 11.1 km/h 19.5 km/h 70% 0.0 mm 0 W/m2
18:15 15.5 °C 9.8 °C 1007.7 hPa NNW 6.1 km/h 19.5 km/h 69% 0.0 mm 0 W/m2
18:20 15.7 °C 9.6 °C 1007.7 hPa NNW 8.7 km/h 19.5 km/h 67% 0.0 mm 0 W/m2
18:25 15.7 °C 9.6 °C 1007.7 hPa North 7.2 km/h 20.9 km/h 67% 0.0 mm 0 W/m2
18:30 15.6 °C 9.7 °C 1007.3 hPa North 5.0 km/h 20.9 km/h 68% 0.0 mm 0 W/m2
18:35 15.4 °C 9.7 °C 1007.3 hPa North 6.1 km/h 15.8 km/h 69% 0.0 mm 0 W/m2
18:40 15.6 °C 9.7 °C 1007.3 hPa NNW 9.7 km/h 19.5 km/h 68% 0.0 mm 0 W/m2
18:45 15.7 °C 9.8 °C 1007.3 hPa NNW 8.7 km/h 19.5 km/h 68% 0.0 mm 0 W/m2
18:50 15.7 °C 9.6 °C 1007.0 hPa NNW 9.7 km/h 20.9 km/h 67% 0.0 mm 0 W/m2
18:55 15.7 °C 9.6 °C 1006.7 hPa NNW 9.7 km/h 20.9 km/h 67% 0.0 mm 0 W/m2
19:00 15.6 °C 9.7 °C 1006.7 hPa NNW 11.1 km/h 25.6 km/h 68% 0.0 mm 0 W/m2
19:05 15.6 °C 9.7 °C 1007.0 hPa NNW 11.1 km/h 25.6 km/h 68% 0.0 mm 0 W/m2
19:10 15.7 °C 9.6 °C 1006.7 hPa NNW 15.8 km/h 24.5 km/h 67% 0.0 mm 0 W/m2
19:15 15.6 °C 9.5 °C 1006.7 hPa North 17.2 km/h 24.5 km/h 67% 0.0 mm 0 W/m2
19:20 15.6 °C 9.5 °C 1006.7 hPa NNW 11.1 km/h 24.5 km/h 67% 0.0 mm 0 W/m2
19:25 15.4 °C 9.6 °C 1006.7 hPa NNW 9.7 km/h 24.5 km/h 68% 0.0 mm 0 W/m2
19:30 15.5 °C 9.4 °C 1006.7 hPa NNW 12.2 km/h 24.5 km/h 67% 0.0 mm 0 W/m2
19:35 15.6 °C 9.5 °C 1006.7 hPa NW 15.8 km/h 31.7 km/h 67% 0.0 mm 0 W/m2
19:40 15.7 °C 9.4 °C 1006.7 hPa NW 14.8 km/h 31.7 km/h 66% 0.0 mm 0 W/m2
19:45 15.8 °C 9.2 °C 1006.7 hPa NNW 15.8 km/h 28.0 km/h 65% 0.0 mm 0 W/m2
19:50 15.8 °C 9.2 °C 1006.7 hPa NNW 13.4 km/h 29.4 km/h 65% 0.0 mm 0 W/m2
19:55 15.8 °C 9.2 °C 1006.7 hPa NNW 11.1 km/h 29.4 km/h 65% 0.0 mm 0 W/m2
20:00 15.7 °C 9.2 °C 1006.7 hPa NNW 14.8 km/h 27.0 km/h 65% 0.0 mm 0 W/m2
20:05 15.7 °C 9.2 °C 1006.7 hPa NW 14.8 km/h 27.0 km/h 65% 0.0 mm 0 W/m2
20:10 15.7 °C 8.9 °C 1006.3 hPa NW 14.8 km/h 31.7 km/h 64% 0.0 mm 0 W/m2
20:15 15.7 °C 9.2 °C 1006.3 hPa NW 13.4 km/h 31.7 km/h 65% 0.0 mm 0 W/m2
20:19 15.7 °C 9.2 °C 1006.7 hPa NW 20.9 km/h 37.8 km/h 65% 0.0 mm 0 W/m2
20:24 15.9 °C 9.1 °C 1006.7 hPa NW 17.2 km/h 37.8 km/h 64% 0.0 mm 0 W/m2
20:29 15.8 °C 9.0 °C 1006.7 hPa NW 15.8 km/h 33.1 km/h 64% 0.0 mm 0 W/m2
20:34 15.8 °C 9.0 °C 1006.7 hPa NW 20.9 km/h 27.0 km/h 64% 0.0 mm 0 W/m2
20:39 15.8 °C 9.0 °C 1006.7 hPa NW 13.4 km/h 27.0 km/h 64% 0.0 mm 0 W/m2
20:44 15.9 °C 9.1 °C 1006.7 hPa NW 21.9 km/h 31.7 km/h 64% 0.0 mm 0 W/m2
20:49 15.9 °C 9.1 °C 1006.7 hPa NNW 9.7 km/h 31.7 km/h 64% 0.0 mm 0 W/m2
20:54 15.8 °C 9.0 °C 1006.7 hPa NNW 13.4 km/h 31.7 km/h 64% 0.0 mm 0 W/m2
20:59 15.7 °C 8.9 °C 1007.0 hPa NNW 12.2 km/h 29.4 km/h 64% 0.0 mm 0 W/m2
21:04 15.5 °C 8.9 °C 1007.0 hPa NNW 8.7 km/h 25.6 km/h 65% 0.0 mm 0 W/m2
21:09 15.2 °C 8.9 °C 1006.7 hPa North 8.7 km/h 15.8 km/h 66% 0.0 mm 0 W/m2
21:14 15.3 °C 9.0 °C 1006.7 hPa NNW 12.2 km/h 21.9 km/h 66% 0.0 mm 0 W/m2
21:19 15.5 °C 8.9 °C 1006.3 hPa NNW 14.8 km/h 21.9 km/h 65% 0.0 mm 0 W/m2
21:24 15.5 °C 8.9 °C 1006.3 hPa NNW 11.1 km/h 23.3 km/h 65% 0.0 mm 0 W/m2
21:29 15.4 °C 8.8 °C 1006.3 hPa NW 11.1 km/h 23.3 km/h 65% 0.0 mm 0 W/m2
21:34 15.3 °C 9.0 °C 1006.7 hPa NW 7.2 km/h 23.3 km/h 66% 0.0 mm 0 W/m2
21:39 15.2 °C 8.9 °C 1006.7 hPa NW 6.1 km/h 19.5 km/h 66% 0.0 mm 0 W/m2
21:44 14.9 °C 9.1 °C 1006.7 hPa NNW 7.2 km/h 12.2 km/h 68% 0.0 mm 0 W/m2
21:49 14.7 °C 9.1 °C 1006.7 hPa NNW 8.7 km/h 14.8 km/h 69% 0.0 mm 0 W/m2
21:54 14.6 °C 9.2 °C 1006.7 hPa NW 5.0 km/h 14.8 km/h 70% 0.0 mm 0 W/m2
21:59 14.4 °C 9.0 °C 1006.7 hPa NW 2.6 km/h 9.7 km/h 70% 0.0 mm 0 W/m2
22:09 14.0 °C 8.8 °C 1006.7 hPa NNE 2.6 km/h 7.2 km/h 71% 0.0 mm 0 W/m2
22:14 14.0 °C 9.1 °C 1006.7 hPa ENE 3.5 km/h 7.2 km/h 72% 0.0 mm 0 W/m2
22:19 13.8 °C 9.1 °C 1006.7 hPa East 1.1 km/h 6.1 km/h 73% 0.0 mm 0 W/m2
22:24 13.8 °C 9.1 °C 1006.7 hPa ESE 1.1 km/h 6.1 km/h 73% 0.0 mm 0 W/m2
22:29 13.6 °C 9.1 °C 1006.7 hPa SE 1.1 km/h 3.5 km/h 74% 0.0 mm 0 W/m2
22:34 13.5 °C 8.9 °C 1006.7 hPa ESE 1.1 km/h 3.5 km/h 74% 0.0 mm 0 W/m2
22:39 13.5 °C 9.2 °C 1006.7 hPa ENE 1.1 km/h 3.5 km/h 75% 0.0 mm 0 W/m2
22:44 13.6 °C 9.3 °C 1006.7 hPa NNE 2.6 km/h 5.0 km/h 75% 0.0 mm 0 W/m2
22:49 13.7 °C 9.3 °C 1006.7 hPa NNE 2.6 km/h 7.2 km/h 75% 0.0 mm 0 W/m2
22:54 13.4 °C 9.1 °C 1006.7 hPa NE 1.1 km/h 7.2 km/h 75% 0.0 mm 0 W/m2
22:59 13.3 °C 8.9 °C 1006.3 hPa NE 2.6 km/h 7.2 km/h 75% 0.0 mm 0 W/m2
23:04 13.2 °C 8.9 °C 1006.3 hPa NE 2.6 km/h 7.2 km/h 75% 0.0 mm 0 W/m2
23:09 13.0 °C 8.9 °C 1006.0 hPa NE 3.5 km/h 7.2 km/h 76% 0.0 mm 0 W/m2
23:14 12.9 °C 8.9 °C 1006.3 hPa NE 2.6 km/h 7.2 km/h 77% 0.0 mm 0 W/m2
23:19 12.9 °C 8.8 °C 1006.3 hPa NE 2.6 km/h 6.1 km/h 76% 0.0 mm 0 W/m2
23:24 12.7 °C 8.6 °C 1006.3 hPa NE 3.5 km/h 6.1 km/h 76% 0.0 mm 0 W/m2
23:29 12.8 °C 8.7 °C 1006.3 hPa NE 5.0 km/h 7.2 km/h 76% 0.0 mm 0 W/m2
23:34 13.0 °C 8.7 °C 1006.3 hPa NE 5.0 km/h 7.2 km/h 75% 0.0 mm 0 W/m2
23:39 13.1 °C 8.6 °C 1006.3 hPa NE 6.1 km/h 7.2 km/h 74% 0.0 mm 0 W/m2
23:44 13.2 °C 8.7 °C 1006.0 hPa NE 7.2 km/h 9.7 km/h 74% 0.0 mm 0 W/m2
23:49 13.0 °C 8.5 °C 1006.0 hPa NE 2.6 km/h 9.7 km/h 74% 0.0 mm 0 W/m2
23:55 12.6 °C 8.1 °C 1005.6 hPa Calm   8.7 km/h 74% 0.0 mm 0 W/m2
Northern Hawkes Bay. New Zealand Historic Data
Compliments of Weather Underground - 2 mb